Big Trout Lake, Big Trout Lake Airport (CYTL)

NameBig Trout Lake Airport
CityBig Trout Lake
CountryCanada
ICAOCYTL
IATAYTL
Altitude223 m
CoordinatesGoogle Map
Live Air TrafficLiveATC.net
METARCYTL 061500Z AUTO 24005KT 9SM FEW008 M25/M27 A3015 RMK SLP240
2019-12-06 15:00:00 Wind: Southwest (240°) 2.57 m/s - Visibility: 14484.06 m - Temperature: -25 °C - Dew point: -27 °C - Humidity: 83.5% - Pressure: 1021 hPa
Statistics

The table below shows the detailed information of all flights to/from Big Trout Lake, Big Trout Lake Airport (CYTL).